sensor_id;sensor_type;location;lat;lon;timestamp;P1;durP1;ratioP1;P2;durP2;ratioP2
52047;SDS011;46904;49.438;8.752;2022-10-22T00:00:00;5.07;;;1.40;;
52047;SDS011;46904;49.438;8.752;2022-10-22T00:02:51;5.68;;;1.70;;
52047;SDS011;46904;49.438;8.752;2022-10-22T00:05:42;2.30;;;1.30;;
52047;SDS011;46904;49.438;8.752;2022-10-22T00:08:32;3.08;;;1.20;;
52047;SDS011;46904;49.438;8.752;2022-10-22T00:11:24;5.95;;;1.30;;
52047;SDS011;46904;49.438;8.752;2022-10-22T00:14:14;4.20;;;1.40;;
52047;SDS011;46904;49.438;8.752;2022-10-22T00:17:05;1.50;;;1.00;;
52047;SDS011;46904;49.438;8.752;2022-10-22T00:19:56;2.22;;;1.25;;
52047;SDS011;46904;49.438;8.752;2022-10-22T00:22:47;4.05;;;1.35;;
52047;SDS011;46904;49.438;8.752;2022-10-22T00:25:38;4.78;;;1.15;;
52047;SDS011;46904;49.438;8.752;2022-10-22T00:28:28;1.90;;;1.58;;
52047;SDS011;46904;49.438;8.752;2022-10-22T00:31:18;3.28;;;1.73;;
52047;SDS011;46904;49.438;8.752;2022-10-22T00:34:09;3.30;;;1.10;;
52047;SDS011;46904;49.438;8.752;2022-10-22T00:36:59;4.50;;;0.98;;
52047;SDS011;46904;49.438;8.752;2022-10-22T00:39:50;1.00;;;0.90;;
52047;SDS011;46904;49.438;8.752;2022-10-22T00:42:40;1.13;;;0.80;;
52047;SDS011;46904;49.438;8.752;2022-10-22T00:45:30;1.50;;;0.90;;
52047;SDS011;46904;49.438;8.752;2022-10-22T00:48:22;8.40;;;0.90;;
52047;SDS011;46904;49.438;8.752;2022-10-22T00:51:14;2.92;;;0.93;;
52047;SDS011;46904;49.438;8.752;2022-10-22T00:54:05;0.90;;;0.65;;
52047;SDS011;46904;49.438;8.752;2022-10-22T00:56:56;0.68;;;0.65;;
52047;SDS011;46904;49.438;8.752;2022-10-22T00:59:46;0.80;;;0.70;;
52047;SDS011;46904;49.438;8.752;2022-10-22T01:02:37;0.70;;;0.70;;
52047;SDS011;46904;49.438;8.752;2022-10-22T01:05:29;0.75;;;0.68;;
52047;SDS011;46904;49.438;8.752;2022-10-22T01:08:25;0.60;;;0.60;;
52047;SDS011;46904;49.438;8.752;2022-10-22T01:11:20;1.02;;;0.90;;
52047;SDS011;46904;49.438;8.752;2022-10-22T01:17:08;2.25;;;0.70;;
52047;SDS011;46904;49.438;8.752;2022-10-22T01:29:00;0.50;;;0.50;;
52047;SDS011;46904;49.438;8.752;2022-10-22T01:31:53;0.50;;;0.50;;
52047;SDS011;46904;49.438;8.752;2022-10-22T01:34:48;0.50;;;0.50;;
52047;SDS011;46904;49.438;8.752;2022-10-22T01:37:42;1.23;;;0.55;;
52047;SDS011;46904;49.438;8.752;2022-10-22T01:40:33;0.52;;;0.50;;
52047;SDS011;46904;49.438;8.752;2022-10-22T01:43:24;1.15;;;0.60;;
52047;SDS011;46904;49.438;8.752;2022-10-22T01:46:15;1.08;;;0.50;;
52047;SDS011;46904;49.438;8.752;2022-10-22T01:54:51;0.85;;;0.60;;
52047;SDS011;46904;49.438;8.752;2022-10-22T02:00:37;1.20;;;0.60;;
52047;SDS011;46904;49.438;8.752;2022-10-22T02:03:33;1.40;;;0.55;;
52047;SDS011;46904;49.438;8.752;2022-10-22T02:06:25;1.58;;;0.50;;
52047;SDS011;46904;49.438;8.752;2022-10-22T02:09:20;0.73;;;0.60;;
52047;SDS011;46904;49.438;8.752;2022-10-22T02:12:12;0.52;;;0.50;;
52047;SDS011;46904;49.438;8.752;2022-10-22T02:15:03;1.73;;;0.60;;
52047;SDS011;46904;49.438;8.752;2022-10-22T02:17:55;0.73;;;0.70;;
52047;SDS011;46904;49.438;8.752;2022-10-22T02:20:46;0.85;;;0.77;;
52047;SDS011;46904;49.438;8.752;2022-10-22T02:23:36;1.42;;;1.02;;
52047;SDS011;46904;49.438;8.752;2022-10-22T02:26:30;1.35;;;1.00;;
52047;SDS011;46904;49.438;8.752;2022-10-22T02:29:24;2.15;;;0.77;;
52047;SDS011;46904;49.438;8.752;2022-10-22T02:32:17;0.80;;;0.75;;
52047;SDS011;46904;49.438;8.752;2022-10-22T02:35:10;0.60;;;0.60;;
52047;SDS011;46904;49.438;8.752;2022-10-22T02:38:02;0.88;;;0.85;;
52047;SDS011;46904;49.438;8.752;2022-10-22T02:40:53;0.93;;;0.80;;
52047;SDS011;46904;49.438;8.752;2022-10-22T02:43:48;1.00;;;0.90;;
52047;SDS011;46904;49.438;8.752;2022-10-22T02:46:38;1.65;;;0.70;;
52047;SDS011;46904;49.438;8.752;2022-10-22T02:49:29;1.70;;;0.73;;
52047;SDS011;46904;49.438;8.752;2022-10-22T02:52:20;1.77;;;0.70;;
52047;SDS011;46904;49.438;8.752;2022-10-22T02:55:11;0.80;;;0.60;;
52047;SDS011;46904;49.438;8.752;2022-10-22T02:58:02;3.90;;;0.80;;
52047;SDS011;46904;49.438;8.752;2022-10-22T03:00:54;4.65;;;1.00;;
52047;SDS011;46904;49.438;8.752;2022-10-22T03:03:44;1.15;;;0.60;;
52047;SDS011;46904;49.438;8.752;2022-10-22T03:06:35;3.92;;;0.80;;
52047;SDS011;46904;49.438;8.752;2022-10-22T03:09:26;0.77;;;0.60;;
52047;SDS011;46904;49.438;8.752;2022-10-22T03:12:17;1.38;;;0.70;;
52047;SDS011;46904;49.438;8.752;2022-10-22T03:15:07;2.17;;;0.73;;
52047;SDS011;46904;49.438;8.752;2022-10-22T03:17:58;0.80;;;0.80;;
52047;SDS011;46904;49.438;8.752;2022-10-22T03:20:48;1.33;;;0.80;;
52047;SDS011;46904;49.438;8.752;2022-10-22T03:23:39;2.03;;;0.85;;
52047;SDS011;46904;49.438;8.752;2022-10-22T03:26:31;0.98;;;0.60;;
52047;SDS011;46904;49.438;8.752;2022-10-22T03:29:22;3.92;;;0.65;;
52047;SDS011;46904;49.438;8.752;2022-10-22T03:32:13;2.25;;;0.70;;
52047;SDS011;46904;49.438;8.752;2022-10-22T03:35:04;1.52;;;0.52;;
52047;SDS011;46904;49.438;8.752;2022-10-22T03:37:55;12.60;;;0.80;;
52047;SDS011;46904;49.438;8.752;2022-10-22T03:40:49;0.82;;;0.70;;
52047;SDS011;46904;49.438;8.752;2022-10-22T03:43:40;3.10;;;1.02;;
52047;SDS011;46904;49.438;8.752;2022-10-22T03:46:31;1.58;;;0.75;;
52047;SDS011;46904;49.438;8.752;2022-10-22T03:49:21;0.82;;;0.60;;
52047;SDS011;46904;49.438;8.752;2022-10-22T03:52:12;0.93;;;0.60;;
52047;SDS011;46904;49.438;8.752;2022-10-22T03:55:03;2.25;;;0.88;;
52047;SDS011;46904;49.438;8.752;2022-10-22T03:57:54;2.95;;;0.60;;
52047;SDS011;46904;49.438;8.752;2022-10-22T04:00:44;0.60;;;0.60;;
52047;SDS011;46904;49.438;8.752;2022-10-22T04:03:40;0.75;;;0.60;;
52047;SDS011;46904;49.438;8.752;2022-10-22T04:06:31;0.93;;;0.60;;
52047;SDS011;46904;49.438;8.752;2022-10-22T04:09:22;2.33;;;0.75;;
52047;SDS011;46904;49.438;8.752;2022-10-22T04:12:12;3.60;;;0.73;;
52047;SDS011;46904;49.438;8.752;2022-10-22T04:15:03;1.30;;;0.70;;
52047;SDS011;46904;49.438;8.752;2022-10-22T04:17:53;0.60;;;0.60;;
52047;SDS011;46904;49.438;8.752;2022-10-22T04:20:44;4.85;;;1.73;;
52047;SDS011;46904;49.438;8.752;2022-10-22T04:23:34;4.53;;;1.00;;
52047;SDS011;46904;49.438;8.752;2022-10-22T04:26:25;1.20;;;0.50;;
52047;SDS011;46904;49.438;8.752;2022-10-22T04:29:16;2.30;;;0.70;;
52047;SDS011;46904;49.438;8.752;2022-10-22T04:32:06;3.55;;;1.40;;
52047;SDS011;46904;49.438;8.752;2022-10-22T04:34:57;2.53;;;0.70;;
52047;SDS011;46904;49.438;8.752;2022-10-22T04:37:48;1.88;;;0.60;;
52047;SDS011;46904;49.438;8.752;2022-10-22T04:40:39;3.97;;;0.70;;
52047;SDS011;46904;49.438;8.752;2022-10-22T04:43:30;3.15;;;0.70;;
52047;SDS011;46904;49.438;8.752;2022-10-22T04:46:22;1.55;;;0.80;;
52047;SDS011;46904;49.438;8.752;2022-10-22T04:49:13;1.45;;;0.70;;
52047;SDS011;46904;49.438;8.752;2022-10-22T04:52:03;0.73;;;0.60;;
52047;SDS011;46904;49.438;8.752;2022-10-22T04:54:54;3.17;;;0.70;;
52047;SDS011;46904;49.438;8.752;2022-10-22T04:57:44;6.97;;;1.08;;
52047;SDS011;46904;49.438;8.752;2022-10-22T05:00:34;3.83;;;0.85;;
52047;SDS011;46904;49.438;8.752;2022-10-22T05:03:24;1.17;;;0.80;;
52047;SDS011;46904;49.438;8.752;2022-10-22T05:06:16;1.00;;;0.63;;
52047;SDS011;46904;49.438;8.752;2022-10-22T05:09:07;1.88;;;0.68;;
52047;SDS011;46904;49.438;8.752;2022-10-22T05:11:59;5.00;;;0.95;;
52047;SDS011;46904;49.438;8.752;2022-10-22T05:14:49;1.58;;;0.60;;
52047;SDS011;46904;49.438;8.752;2022-10-22T05:17:40;3.95;;;0.90;;
52047;SDS011;46904;49.438;8.752;2022-10-22T05:20:31;0.80;;;0.73;;
52047;SDS011;46904;49.438;8.752;2022-10-22T05:23:21;0.50;;;0.50;;
52047;SDS011;46904;49.438;8.752;2022-10-22T05:26:13;1.73;;;0.90;;
52047;SDS011;46904;49.438;8.752;2022-10-22T05:29:04;0.82;;;0.82;;
52047;SDS011;46904;49.438;8.752;2022-10-22T05:31:54;3.33;;;0.70;;
52047;SDS011;46904;49.438;8.752;2022-10-22T05:34:45;0.50;;;0.50;;
52047;SDS011;46904;49.438;8.752;2022-10-22T05:37:36;0.90;;;0.77;;
52047;SDS011;46904;49.438;8.752;2022-10-22T05:40:26;6.28;;;0.80;;
52047;SDS011;46904;49.438;8.752;2022-10-22T05:43:16;1.60;;;0.55;;
52047;SDS011;46904;49.438;8.752;2022-10-22T05:46:08;0.85;;;0.77;;
52047;SDS011;46904;49.438;8.752;2022-10-22T05:48:59;1.95;;;0.50;;
52047;SDS011;46904;49.438;8.752;2022-10-22T05:51:50;0.70;;;0.60;;
52047;SDS011;46904;49.438;8.752;2022-10-22T05:54:41;1.42;;;0.50;;
52047;SDS011;46904;49.438;8.752;2022-10-22T05:57:32;1.77;;;0.50;;
52047;SDS011;46904;49.438;8.752;2022-10-22T06:00:23;0.68;;;0.57;;
52047;SDS011;46904;49.438;8.752;2022-10-22T06:03:13;1.83;;;0.60;;
52047;SDS011;46904;49.438;8.752;2022-10-22T06:06:06;0.70;;;0.50;;
52047;SDS011;46904;49.438;8.752;2022-10-22T06:09:00;0.50;;;0.50;;
52047;SDS011;46904;49.438;8.752;2022-10-22T06:11:51;0.45;;;0.45;;
52047;SDS011;46904;49.438;8.752;2022-10-22T06:14:41;0.60;;;0.60;;
52047;SDS011;46904;49.438;8.752;2022-10-22T06:17:32;0.40;;;0.40;;
52047;SDS011;46904;49.438;8.752;2022-10-22T06:20:23;1.35;;;0.50;;
52047;SDS011;46904;49.438;8.752;2022-10-22T06:23:15;0.60;;;0.50;;
52047;SDS011;46904;49.438;8.752;2022-10-22T06:26:05;1.30;;;0.70;;
52047;SDS011;46904;49.438;8.752;2022-10-22T06:28:56;0.50;;;0.47;;
52047;SDS011;46904;49.438;8.752;2022-10-22T06:31:47;0.52;;;0.50;;
52047;SDS011;46904;49.438;8.752;2022-10-22T06:34:38;0.50;;;0.50;;
52047;SDS011;46904;49.438;8.752;2022-10-22T06:37:28;1.13;;;0.90;;
52047;SDS011;46904;49.438;8.752;2022-10-22T06:40:19;0.85;;;0.50;;
52047;SDS011;46904;49.438;8.752;2022-10-22T06:43:10;0.70;;;0.52;;
52047;SDS011;46904;49.438;8.752;2022-10-22T06:46:02;1.20;;;0.70;;
52047;SDS011;46904;49.438;8.752;2022-10-22T06:48:53;0.60;;;0.50;;
52047;SDS011;46904;49.438;8.752;2022-10-22T06:51:47;0.60;;;0.60;;
52047;SDS011;46904;49.438;8.752;2022-10-22T06:57:47;0.70;;;0.60;;
52047;SDS011;46904;49.438;8.752;2022-10-22T07:00:37;0.75;;;0.60;;
52047;SDS011;46904;49.438;8.752;2022-10-22T07:03:27;1.42;;;0.70;;
52047;SDS011;46904;49.438;8.752;2022-10-22T07:06:18;3.47;;;0.70;;
52047;SDS011;46904;49.438;8.752;2022-10-22T07:09:08;0.63;;;0.63;;
52047;SDS011;46904;49.438;8.752;2022-10-22T07:11:59;1.13;;;0.60;;
52047;SDS011;46904;49.438;8.752;2022-10-22T07:14:50;2.92;;;0.60;;
52047;SDS011;46904;49.438;8.752;2022-10-22T07:17:40;0.60;;;0.60;;
52047;SDS011;46904;49.438;8.752;2022-10-22T07:20:31;0.88;;;0.60;;
52047;SDS011;46904;49.438;8.752;2022-10-22T07:23:22;0.55;;;0.43;;
52047;SDS011;46904;49.438;8.752;2022-10-22T07:26:14;0.50;;;0.50;;
52047;SDS011;46904;49.438;8.752;2022-10-22T07:29:04;0.55;;;0.55;;
52047;SDS011;46904;49.438;8.752;2022-10-22T07:31:54;7.88;;;1.58;;
52047;SDS011;46904;49.438;8.752;2022-10-22T07:34:47;0.80;;;0.70;;
52047;SDS011;46904;49.438;8.752;2022-10-22T07:37:38;2.35;;;1.40;;
52047;SDS011;46904;49.438;8.752;2022-10-22T07:40:29;1.05;;;0.95;;
52047;SDS011;46904;49.438;8.752;2022-10-22T07:43:20;0.80;;;0.63;;
52047;SDS011;46904;49.438;8.752;2022-10-22T07:46:11;0.95;;;0.80;;
52047;SDS011;46904;49.438;8.752;2022-10-22T07:49:02;0.80;;;0.80;;
52047;SDS011;46904;49.438;8.752;2022-10-22T07:51:52;0.60;;;0.60;;
52047;SDS011;46904;49.438;8.752;2022-10-22T07:54:43;0.50;;;0.50;;
52047;SDS011;46904;49.438;8.752;2022-10-22T07:57:33;1.00;;;0.50;;
52047;SDS011;46904;49.438;8.752;2022-10-22T08:00:24;1.10;;;0.52;;
52047;SDS011;46904;49.438;8.752;2022-10-22T08:03:15;0.57;;;0.57;;
52047;SDS011;46904;49.438;8.752;2022-10-22T08:06:06;1.38;;;0.70;;
52047;SDS011;46904;49.438;8.752;2022-10-22T08:08:56;0.60;;;0.50;;
52047;SDS011;46904;49.438;8.752;2022-10-22T08:11:47;1.75;;;0.50;;
52047;SDS011;46904;49.438;8.752;2022-10-22T08:14:38;1.10;;;0.50;;
52047;SDS011;46904;49.438;8.752;2022-10-22T08:17:29;0.65;;;0.63;;
52047;SDS011;46904;49.438;8.752;2022-10-22T08:20:20;0.88;;;0.40;;
52047;SDS011;46904;49.438;8.752;2022-10-22T08:23:10;0.65;;;0.50;;
52047;SDS011;46904;49.438;8.752;2022-10-22T08:26:00;0.85;;;0.50;;
52047;SDS011;46904;49.438;8.752;2022-10-22T08:28:51;0.50;;;0.50;;
52047;SDS011;46904;49.438;8.752;2022-10-22T08:31:42;0.95;;;0.43;;
52047;SDS011;46904;49.438;8.752;2022-10-22T08:34:32;0.50;;;0.50;;
52047;SDS011;46904;49.438;8.752;2022-10-22T08:37:22;1.40;;;0.43;;
52047;SDS011;46904;49.438;8.752;2022-10-22T08:40:17;1.38;;;0.65;;
52047;SDS011;46904;49.438;8.752;2022-10-22T08:43:12;3.17;;;0.55;;
52047;SDS011;46904;49.438;8.752;2022-10-22T08:49:04;0.50;;;0.50;;
52047;SDS011;46904;49.438;8.752;2022-10-22T08:51:56;0.50;;;0.50;;
52047;SDS011;46904;49.438;8.752;2022-10-22T09:00:41;1.50;;;0.60;;
52047;SDS011;46904;49.438;8.752;2022-10-22T09:06:24;0.50;;;0.50;;
52047;SDS011;46904;49.438;8.752;2022-10-22T09:09:24;0.90;;;0.40;;
52047;SDS011;46904;49.438;8.752;2022-10-22T09:12:16;0.52;;;0.50;;
52047;SDS011;46904;49.438;8.752;2022-10-22T09:15:11;1.05;;;0.60;;
52047;SDS011;46904;49.438;8.752;2022-10-22T09:20:59;0.73;;;0.47;;
52047;SDS011;46904;49.438;8.752;2022-10-22T09:27:08;0.68;;;0.68;;
52047;SDS011;46904;49.438;8.752;2022-10-22T09:30:00;0.98;;;0.68;;
52047;SDS011;46904;49.438;8.752;2022-10-22T09:32:58;2.40;;;0.63;;
52047;SDS011;46904;49.438;8.752;2022-10-22T09:35:51;0.88;;;0.60;;
52047;SDS011;46904;49.438;8.752;2022-10-22T09:38:46;1.25;;;0.70;;
52047;SDS011;46904;49.438;8.752;2022-10-22T09:41:38;0.57;;;0.57;;
52047;SDS011;46904;49.438;8.752;2022-10-22T09:44:32;0.77;;;0.60;;
52047;SDS011;46904;49.438;8.752;2022-10-22T09:47:38;1.13;;;1.02;;
52047;SDS011;46904;49.438;8.752;2022-10-22T09:50:49;1.38;;;0.70;;
52047;SDS011;46904;49.438;8.752;2022-10-22T09:53:44;1.58;;;0.60;;
52047;SDS011;46904;49.438;8.752;2022-10-22T09:56:37;1.63;;;0.65;;
52047;SDS011;46904;49.438;8.752;2022-10-22T09:59:29;0.77;;;0.63;;
52047;SDS011;46904;49.438;8.752;2022-10-22T10:02:21;0.77;;;0.60;;
52047;SDS011;46904;49.438;8.752;2022-10-22T10:05:24;1.95;;;0.70;;
52047;SDS011;46904;49.438;8.752;2022-10-22T10:08:15;1.10;;;0.73;;
52047;SDS011;46904;49.438;8.752;2022-10-22T10:20:19;2.88;;;0.90;;
52047;SDS011;46904;49.438;8.752;2022-10-22T10:35:27;1.00;;;0.75;;
52047;SDS011;46904;49.438;8.752;2022-10-22T10:38:34;2.03;;;0.88;;
52047;SDS011;46904;49.438;8.752;2022-10-22T10:56:49;1.90;;;1.00;;
52047;SDS011;46904;49.438;8.752;2022-10-22T10:59:44;1.15;;;0.70;;
52047;SDS011;46904;49.438;8.752;2022-10-22T11:03:00;1.05;;;0.80;;
52047;SDS011;46904;49.438;8.752;2022-10-22T11:05:53;1.15;;;0.70;;
52047;SDS011;46904;49.438;8.752;2022-10-22T11:08:55;2.08;;;1.25;;
52047;SDS011;46904;49.438;8.752;2022-10-22T11:11:47;2.25;;;0.65;;
52047;SDS011;46904;49.438;8.752;2022-10-22T11:14:58;1.58;;;0.65;;
52047;SDS011;46904;49.438;8.752;2022-10-22T11:17:50;1.63;;;0.52;;
52047;SDS011;46904;49.438;8.752;2022-10-22T11:26:53;0.95;;;0.60;;
52047;SDS011;46904;49.438;8.752;2022-10-22T11:29:46;1.33;;;0.80;;
52047;SDS011;46904;49.438;8.752;2022-10-22T11:32:40;0.98;;;0.70;;
52047;SDS011;46904;49.438;8.752;2022-10-22T11:35:33;0.90;;;0.65;;
52047;SDS011;46904;49.438;8.752;2022-10-22T11:38:24;1.13;;;0.70;;
52047;SDS011;46904;49.438;8.752;2022-10-22T11:41:18;1.67;;;0.98;;
52047;SDS011;46904;49.438;8.752;2022-10-22T11:44:22;1.23;;;0.80;;
52047;SDS011;46904;49.438;8.752;2022-10-22T11:47:17;1.45;;;0.93;;
52047;SDS011;46904;49.438;8.752;2022-10-22T11:50:21;0.80;;;0.80;;
52047;SDS011;46904;49.438;8.752;2022-10-22T11:58:55;1.35;;;0.80;;
52047;SDS011;46904;49.438;8.752;2022-10-22T12:01:46;1.27;;;0.68;;
52047;SDS011;46904;49.438;8.752;2022-10-22T12:04:40;0.70;;;0.60;;
52047;SDS011;46904;49.438;8.752;2022-10-22T12:07:34;1.55;;;0.85;;
52047;SDS011;46904;49.438;8.752;2022-10-22T12:10:33;1.48;;;0.65;;
52047;SDS011;46904;49.438;8.752;2022-10-22T12:13:25;0.73;;;0.73;;
52047;SDS011;46904;49.438;8.752;2022-10-22T12:16:16;1.52;;;0.90;;
52047;SDS011;46904;49.438;8.752;2022-10-22T12:25:18;2.28;;;0.98;;
52047;SDS011;46904;49.438;8.752;2022-10-22T12:28:10;2.38;;;1.38;;
52047;SDS011;46904;49.438;8.752;2022-10-22T12:31:00;1.73;;;1.10;;
52047;SDS011;46904;49.438;8.752;2022-10-22T12:33:58;1.77;;;0.80;;
52047;SDS011;46904;49.438;8.752;2022-10-22T12:36:49;1.05;;;0.82;;
52047;SDS011;46904;49.438;8.752;2022-10-22T12:39:45;2.58;;;0.95;;
52047;SDS011;46904;49.438;8.752;2022-10-22T12:42:36;1.20;;;0.70;;
52047;SDS011;46904;49.438;8.752;2022-10-22T12:45:30;1.50;;;0.70;;
52047;SDS011;46904;49.438;8.752;2022-10-22T12:54:27;1.27;;;0.98;;
52047;SDS011;46904;49.438;8.752;2022-10-22T12:57:21;2.20;;;0.75;;
52047;SDS011;46904;49.438;8.752;2022-10-22T13:06:23;1.27;;;1.17;;
52047;SDS011;46904;49.438;8.752;2022-10-22T13:09:18;3.45;;;0.80;;
52047;SDS011;46904;49.438;8.752;2022-10-22T13:12:09;1.40;;;0.77;;
52047;SDS011;46904;49.438;8.752;2022-10-22T13:15:19;1.08;;;0.70;;
52047;SDS011;46904;49.438;8.752;2022-10-22T13:18:17;1.70;;;0.80;;
52047;SDS011;46904;49.438;8.752;2022-10-22T13:21:21;4.45;;;1.27;;
52047;SDS011;46904;49.438;8.752;2022-10-22T13:24:22;0.88;;;0.75;;
52047;SDS011;46904;49.438;8.752;2022-10-22T13:27:17;2.08;;;0.90;;
52047;SDS011;46904;49.438;8.752;2022-10-22T13:30:20;1.45;;;1.10;;
52047;SDS011;46904;49.438;8.752;2022-10-22T13:36:21;0.70;;;0.70;;
52047;SDS011;46904;49.438;8.752;2022-10-22T13:39:15;1.42;;;0.90;;
52047;SDS011;46904;49.438;8.752;2022-10-22T13:42:10;1.15;;;0.80;;
52047;SDS011;46904;49.438;8.752;2022-10-22T13:45:02;2.15;;;0.80;;
52047;SDS011;46904;49.438;8.752;2022-10-22T13:47:57;3.17;;;0.90;;
52047;SDS011;46904;49.438;8.752;2022-10-22T13:50:48;1.30;;;0.80;;
52047;SDS011;46904;49.438;8.752;2022-10-22T13:53:40;2.60;;;1.10;;
52047;SDS011;46904;49.438;8.752;2022-10-22T13:56:33;2.30;;;1.13;;
52047;SDS011;46904;49.438;8.752;2022-10-22T13:59:26;1.90;;;0.90;;
52047;SDS011;46904;49.438;8.752;2022-10-22T14:19:14;1.73;;;0.88;;
52047;SDS011;46904;49.438;8.752;2022-10-22T14:22:07;0.98;;;0.70;;
52047;SDS011;46904;49.438;8.752;2022-10-22T14:31:40;1.52;;;0.80;;
52047;SDS011;46904;49.438;8.752;2022-10-22T14:37:26;1.10;;;0.73;;
52047;SDS011;46904;49.438;8.752;2022-10-22T14:40:26;5.45;;;0.88;;
52047;SDS011;46904;49.438;8.752;2022-10-22T14:59:18;1.67;;;0.90;;
52047;SDS011;46904;49.438;8.752;2022-10-22T15:02:20;2.08;;;1.00;;
52047;SDS011;46904;49.438;8.752;2022-10-22T15:23:50;1.30;;;0.90;;
52047;SDS011;46904;49.438;8.752;2022-10-22T15:26:43;1.85;;;1.15;;
52047;SDS011;46904;49.438;8.752;2022-10-22T15:33:05;3.42;;;1.23;;
52047;SDS011;46904;49.438;8.752;2022-10-22T15:36:07;2.83;;;0.93;;
52047;SDS011;46904;49.438;8.752;2022-10-22T15:42:23;1.88;;;0.90;;
52047;SDS011;46904;49.438;8.752;2022-10-22T15:45:33;5.30;;;1.90;;
52047;SDS011;46904;49.438;8.752;2022-10-22T15:48:23;5.47;;;2.33;;
52047;SDS011;46904;49.438;8.752;2022-10-22T15:51:19;4.57;;;1.73;;
52047;SDS011;46904;49.438;8.752;2022-10-22T15:54:18;3.22;;;1.67;;
52047;SDS011;46904;49.438;8.752;2022-10-22T15:57:12;2.17;;;1.60;;
52047;SDS011;46904;49.438;8.752;2022-10-22T16:00:06;5.25;;;1.90;;
52047;SDS011;46904;49.438;8.752;2022-10-22T16:03:06;3.97;;;2.20;;
52047;SDS011;46904;49.438;8.752;2022-10-22T16:05:56;8.40;;;2.83;;
52047;SDS011;46904;49.438;8.752;2022-10-22T16:08:46;5.90;;;2.78;;
52047;SDS011;46904;49.438;8.752;2022-10-22T16:11:39;7.43;;;2.90;;
52047;SDS011;46904;49.438;8.752;2022-10-22T16:14:32;6.30;;;3.00;;
52047;SDS011;46904;49.438;8.752;2022-10-22T16:17:27;6.55;;;3.63;;
52047;SDS011;46904;49.438;8.752;2022-10-22T16:20:17;4.68;;;2.78;;
52047;SDS011;46904;49.438;8.752;2022-10-22T16:23:07;5.28;;;2.40;;
52047;SDS011;46904;49.438;8.752;2022-10-22T16:26:01;4.95;;;1.90;;
52047;SDS011;46904;49.438;8.752;2022-10-22T16:28:51;6.55;;;1.80;;
52047;SDS011;46904;49.438;8.752;2022-10-22T16:31:41;3.05;;;2.13;;
52047;SDS011;46904;49.438;8.752;2022-10-22T16:34:32;2.40;;;1.60;;
52047;SDS011;46904;49.438;8.752;2022-10-22T16:37:23;3.88;;;2.03;;
52047;SDS011;46904;49.438;8.752;2022-10-22T16:40:12;3.05;;;1.75;;
52047;SDS011;46904;49.438;8.752;2022-10-22T16:43:03;8.27;;;2.00;;
52047;SDS011;46904;49.438;8.752;2022-10-22T16:45:54;6.22;;;1.95;;
52047;SDS011;46904;49.438;8.752;2022-10-22T16:48:44;6.63;;;2.42;;
52047;SDS011;46904;49.438;8.752;2022-10-22T16:51:35;5.35;;;1.88;;
52047;SDS011;46904;49.438;8.752;2022-10-22T16:54:26;6.28;;;1.90;;
52047;SDS011;46904;49.438;8.752;2022-10-22T16:57:16;4.03;;;1.80;;
52047;SDS011;46904;49.438;8.752;2022-10-22T17:00:06;2.47;;;1.67;;
52047;SDS011;46904;49.438;8.752;2022-10-22T17:02:59;2.40;;;1.40;;
52047;SDS011;46904;49.438;8.752;2022-10-22T17:05:49;4.45;;;1.50;;
52047;SDS011;46904;49.438;8.752;2022-10-22T17:08:39;2.45;;;1.30;;
52047;SDS011;46904;49.438;8.752;2022-10-22T17:11:29;4.40;;;2.00;;
52047;SDS011;46904;49.438;8.752;2022-10-22T17:14:19;6.82;;;1.58;;
52047;SDS011;46904;49.438;8.752;2022-10-22T17:17:10;2.45;;;1.73;;
52047;SDS011;46904;49.438;8.752;2022-10-22T17:20:00;4.63;;;1.50;;
52047;SDS011;46904;49.438;8.752;2022-10-22T17:22:51;3.05;;;1.35;;
52047;SDS011;46904;49.438;8.752;2022-10-22T17:25:41;5.88;;;2.38;;
52047;SDS011;46904;49.438;8.752;2022-10-22T17:28:33;2.35;;;1.65;;
52047;SDS011;46904;49.438;8.752;2022-10-22T17:31:25;6.05;;;1.48;;
52047;SDS011;46904;49.438;8.752;2022-10-22T17:46:36;5.15;;;2.00;;
52047;SDS011;46904;49.438;8.752;2022-10-22T17:49:30;2.58;;;1.60;;
52047;SDS011;46904;49.438;8.752;2022-10-22T17:52:21;1.92;;;1.30;;
52047;SDS011;46904;49.438;8.752;2022-10-22T17:55:12;4.70;;;1.73;;
52047;SDS011;46904;49.438;8.752;2022-10-22T17:58:03;3.63;;;1.42;;
52047;SDS011;46904;49.438;8.752;2022-10-22T18:00:54;3.17;;;1.80;;
52047;SDS011;46904;49.438;8.752;2022-10-22T18:03:44;6.22;;;1.95;;
52047;SDS011;46904;49.438;8.752;2022-10-22T18:06:35;3.58;;;1.35;;
52047;SDS011;46904;49.438;8.752;2022-10-22T18:09:26;4.90;;;2.22;;
52047;SDS011;46904;49.438;8.752;2022-10-22T18:12:16;6.55;;;1.83;;
52047;SDS011;46904;49.438;8.752;2022-10-22T18:15:07;18.85;;;2.20;;
52047;SDS011;46904;49.438;8.752;2022-10-22T18:17:58;4.60;;;1.20;;
52047;SDS011;46904;49.438;8.752;2022-10-22T18:21:02;3.95;;;1.40;;
52047;SDS011;46904;49.438;8.752;2022-10-22T18:23:57;3.25;;;1.70;;
52047;SDS011;46904;49.438;8.752;2022-10-22T18:26:48;6.43;;;3.72;;
52047;SDS011;46904;49.438;8.752;2022-10-22T18:29:39;4.32;;;2.90;;
52047;SDS011;46904;49.438;8.752;2022-10-22T18:32:30;3.33;;;2.70;;
52047;SDS011;46904;49.438;8.752;2022-10-22T18:35:21;5.07;;;2.38;;
52047;SDS011;46904;49.438;8.752;2022-10-22T18:38:11;5.90;;;2.30;;
52047;SDS011;46904;49.438;8.752;2022-10-22T18:41:01;9.50;;;3.55;;
52047;SDS011;46904;49.438;8.752;2022-10-22T18:43:53;5.45;;;3.25;;
52047;SDS011;46904;49.438;8.752;2022-10-22T18:46:44;5.60;;;2.60;;
52047;SDS011;46904;49.438;8.752;2022-10-22T18:49:34;6.53;;;2.28;;
52047;SDS011;46904;49.438;8.752;2022-10-22T18:52:27;3.22;;;1.98;;
52047;SDS011;46904;49.438;8.752;2022-10-22T19:01:48;3.38;;;1.80;;
52047;SDS011;46904;49.438;8.752;2022-10-22T19:04:39;3.72;;;1.95;;
52047;SDS011;46904;49.438;8.752;2022-10-22T19:07:30;3.28;;;2.00;;
52047;SDS011;46904;49.438;8.752;2022-10-22T19:10:21;2.65;;;2.08;;
52047;SDS011;46904;49.438;8.752;2022-10-22T19:13:12;3.90;;;2.10;;
52047;SDS011;46904;49.438;8.752;2022-10-22T19:16:03;7.85;;;2.67;;
52047;SDS011;46904;49.438;8.752;2022-10-22T19:19:03;3.70;;;2.20;;
52047;SDS011;46904;49.438;8.752;2022-10-22T19:21:54;3.55;;;2.10;;
52047;SDS011;46904;49.438;8.752;2022-10-22T19:24:47;2.85;;;2.17;;
52047;SDS011;46904;49.438;8.752;2022-10-22T19:27:37;8.35;;;2.20;;
52047;SDS011;46904;49.438;8.752;2022-10-22T19:30:28;4.03;;;1.88;;
52047;SDS011;46904;49.438;8.752;2022-10-22T19:33:19;3.35;;;2.22;;
52047;SDS011;46904;49.438;8.752;2022-10-22T19:36:10;2.30;;;2.05;;
52047;SDS011;46904;49.438;8.752;2022-10-22T19:39:14;2.92;;;2.28;;
52047;SDS011;46904;49.438;8.752;2022-10-22T19:42:05;3.28;;;2.47;;
52047;SDS011;46904;49.438;8.752;2022-10-22T19:44:55;6.45;;;2.20;;
52047;SDS011;46904;49.438;8.752;2022-10-22T19:47:46;4.82;;;2.30;;
52047;SDS011;46904;49.438;8.752;2022-10-22T19:50:36;3.22;;;1.92;;
52047;SDS011;46904;49.438;8.752;2022-10-22T19:53:33;3.13;;;2.20;;
52047;SDS011;46904;49.438;8.752;2022-10-22T19:56:24;3.38;;;2.40;;
52047;SDS011;46904;49.438;8.752;2022-10-22T19:59:15;5.95;;;2.15;;
52047;SDS011;46904;49.438;8.752;2022-10-22T20:02:07;5.18;;;1.70;;
52047;SDS011;46904;49.438;8.752;2022-10-22T20:04:57;5.10;;;1.50;;
52047;SDS011;46904;49.438;8.752;2022-10-22T20:07:48;4.55;;;1.70;;
52047;SDS011;46904;49.438;8.752;2022-10-22T20:10:39;4.22;;;1.38;;
52047;SDS011;46904;49.438;8.752;2022-10-22T20:13:30;2.95;;;1.40;;
52047;SDS011;46904;49.438;8.752;2022-10-22T20:16:22;1.92;;;1.33;;
52047;SDS011;46904;49.438;8.752;2022-10-22T20:19:13;1.85;;;1.70;;
52047;SDS011;46904;49.438;8.752;2022-10-22T20:22:03;2.83;;;1.45;;
52047;SDS011;46904;49.438;8.752;2022-10-22T20:24:54;3.08;;;1.38;;
52047;SDS011;46904;49.438;8.752;2022-10-22T20:27:45;5.38;;;1.55;;
52047;SDS011;46904;49.438;8.752;2022-10-22T20:30:35;3.63;;;1.45;;
52047;SDS011;46904;49.438;8.752;2022-10-22T20:33:29;2.45;;;1.33;;
52047;SDS011;46904;49.438;8.752;2022-10-22T20:36:21;4.00;;;1.50;;